aviador You're here:

DTTJ Decoded Metar

DJERBA in TUNISIA
Report Time2018-06-23 05:30:00
UTC Time2018-06-23 06:07:31
Flight Rules vfr VFR
Wind090° at 03 kt
W.Decomp.*RWY 09: 3.0 kt HW 0.1 kt LCW
W.Rank090° ranks 6
Current wind is below 090° avg. (8.3)
Visibility8000 m
Phenomena:N/A
Clouds:Few 026 Hf
Expected CloudBase > 1,200 ft AGL from Temp-Dew spread
CeilingNone
Temp24°C (ISA +9)
Dew Point21°C (83% RH)
QNH1016 hPa
Density Alt1,286 ft
Elevation13 ft
Report Wrong Elevation
Raw Report
METAR DTTJ 230530Z 09003KT 8000 FEW026 24/21 Q1016 NOSIG=####018000099####
SAIN90 VOAT 230530

Extra information for DTTJ:More info

Metar Taf Metar & Taf Last 4 Metars F.Rules Stats Wind Profile Meteogram Temp Stats Airport Information Weather charts Add Link Nearby VenuesMetar ALERT Operation Metar Decoded Social comments